Time;durP1;ratioP1;P1;durP2;ratioP2;P2;SDS_P1;SDS_P2;PMS_P1;PMS_P2;Temp;Humidity;BMP_temperature;BMP_pressure;BME280_temperature;BME280_humidity;BME280_pressure;Samples;Min_cycle;Max_cycle;Signal;HPM_P1;HPM_P2
2022/10/09 00:00:10;;;;;;;;;;;;;;;;;;1048224;28;2557;-56
2022/10/09 00:01:06;;;;;;;;;;;;;;;;;;1047287;28;2396;-55
2022/10/09 00:01:42;;;;;;;;;;;;;;;;;;1049220;28;2425;-55
2022/10/09 00:02:13;;;;;;;;;;;;;;;;;;1047746;28;2425;-56
2022/10/09 00:02:44;;;;;;;;;;;;;;;;;;1050806;28;2288;-56
2022/10/09 00:03:16;;;;;;;;;;;;;;;;;;1048239;28;2519;-58
2022/10/09 00:03:47;;;;;;;;;;;;;;;;;;1048730;28;3528;-55
2022/10/09 00:04:17;;;;;;;;;;;;;;;;;;1049007;28;2592;-57
2022/10/09 00:04:47;;;;;;;;;;;;;;;;;;1049724;28;2640;-56
2022/10/09 00:05:18;;;;;;;;;;;;;;;;;;1047601;28;2278;-55
2022/10/09 00:05:48;;;;;;;;;;;;;;;;;;1049027;28;3012;-54
2022/10/09 00:06:19;;;;;;;;;;;;;;;;;;1047479;28;3544;-56
2022/10/09 00:06:50;;;;;;;;;;;;;;;;;;1049092;28;2533;-56
2022/10/09 00:07:21;;;;;;;;;;;;;;;;;;1048544;28;2023;-56
2022/10/09 00:07:52;;;;;;;;;;;;;;;;;;1047084;28;1790;-57
2022/10/09 00:08:23;;;;;;;;;;;;;;;;;;1041193;28;2645;-55
2022/10/09 00:08:53;;;;;;;;;;;;;;;;;;1044602;28;2432;-55
2022/10/09 00:09:24;;;;;;;;;;;;;;;;;;1045741;28;2487;-56
2022/10/09 00:09:56;;;;;;;;;;;;;;;;;;1037784;28;1903;-56
2022/10/09 00:10:27;;;;;;;;;;;;;;;;;;1036615;28;2378;-54
2022/10/09 00:10:57;;;;;;;;;;;;;;;;;;1041824;28;1964;-54
2022/10/09 00:11:29;;;;;;;;;;;;;;;;;;1043542;28;2220;-54
2022/10/09 00:11:59;;;;;;;;;;;;;;;;;;1048739;28;2449;-57
2022/10/09 00:12:29;;;;;;;;;;;;;;;;;;1049571;28;2607;-55
2022/10/09 00:13:00;;;;;;;;;;;;;;;;;;1049683;28;2496;-55
2022/10/09 00:13:30;;;;;;;;;;;;;;;;;;1049854;28;2708;-57
2022/10/09 00:14:01;;;;;;;;;;;;;;;;;;1047171;28;3011;-55
2022/10/09 00:14:32;;;;;;;;;;;;;;;;;;1049565;28;2818;-56
2022/10/09 00:15:03;;;;;;;;;;;;;;;;;;1046137;28;2168;-53
2022/10/09 00:15:38;;;;;;;;;;;;;;;;;;1047345;28;2438;-55
2022/10/09 00:16:10;;;;;;;;;;;;;;;;;;1045067;28;3022;-59
2022/10/09 00:16:43;;;;;;;;;;;;;;;;;;1049740;28;2161;-55
2022/10/09 00:17:13;;;;;;;;;;;;;;;;;;1049521;28;2547;-55
2022/10/09 00:17:44;;;;;;;;;;;;;;;;;;1049441;28;2518;-54
2022/10/09 00:18:15;;;;;;;;;;;;;;;;;;1047627;28;2604;-55
2022/10/09 00:18:46;;;;;;;;;;;;;;;;;;1048967;28;2397;-55
2022/10/09 00:19:17;;;;;;;;;;;;;;;;;;1046214;28;2854;-56
2022/10/09 00:19:48;;;;;;;;;;;;;;;;;;1042123;28;2479;-55
2022/10/09 00:20:19;;;;;;;;;;;;;;;;;;1040591;28;2488;-57
2022/10/09 00:20:49;;;;;;;;;;;;;;;;;;1042044;28;2477;-57
2022/10/09 00:21:23;;;;;;;;;;;;;;;;;;1040038;28;2844;-57
2022/10/09 00:21:54;;;;;;;;;;;;;;;;;;1048386;28;2271;-57
2022/10/09 00:22:26;;;;;;;;;;;;;;;;;;1043185;28;2594;-57
2022/10/09 00:22:57;;;;;;;;;;;;;;;;;;1038061;28;2513;-56
2022/10/09 00:23:28;;;;;;;;;;;;;;;;;;1028178;28;1976;-56
2022/10/09 00:24:00;;;;;;;;;;;;;;;;;;1029789;28;2444;-54
2022/10/09 00:24:30;;;;;;;;;;;;;;;;;;1037747;28;2445;-55
2022/10/09 00:25:00;;;;;;;;;;;;;;;;;;1045032;28;2489;-55
2022/10/09 00:25:31;;;;;;;;;;;;;;;;;;1047412;28;2585;-52
2022/10/09 00:26:02;;;;;;;;;;;;;;;;;;1046571;28;2387;-57
2022/10/09 00:26:32;;;;;;;;;;;;;;;;;;1048698;28;2425;-54
2022/10/09 00:27:02;;;;;;;;;;;;;;;;;;1050086;28;2774;-56
2022/10/09 00:27:33;;;;;;;;;;;;;;;;;;1050055;28;3050;-59
2022/10/09 00:28:08;;;;;;;;;;;;;;;;;;1047657;28;3112;-58
2022/10/09 00:28:38;;;;;;;;;;;;;;;;;;1050137;28;1910;-52
2022/10/09 00:29:08;;;;;;;;;;;;;;;;;;1047829;28;2478;-54
2022/10/09 00:29:38;;;;;;;;;;;;;;;;;;1050237;28;2412;-53
2022/10/09 00:30:15;;;;;;;;;;;;;;;;;;1048021;28;2969;-59
2022/10/09 00:30:53;;;;;;;;;;;;;;;;;;1054618;28;2998;-57
2022/10/09 00:31:24;;;;;;;;;;;;;;;;;;1047631;28;2386;-54
2022/10/09 00:31:54;;;;;;;;;;;;;;;;;;1043969;28;3061;-56
2022/10/09 00:32:25;;;;;;;;;;;;;;;;;;1045210;28;2035;-58
2022/10/09 00:32:55;;;;;;;;;;;;;;;;;;1038326;28;2613;-55
2022/10/09 00:33:25;;;;;;;;;;;;;;;;;;1041321;28;2415;-56
2022/10/09 00:34:03;;;;;;;;;;;;;;;;;;1046345;28;2488;-56
2022/10/09 00:34:33;;;;;;;;;;;;;;;;;;1045215;28;2619;-56
2022/10/09 00:35:04;;;;;;;;;;;;;;;;;;1047793;28;2418;-55
2022/10/09 00:35:37;;;;;;;;;;;;;;;;;;1048220;28;2795;-56
2022/10/09 00:36:12;;;;;;;;;;;;;;;;;;1049336;28;2536;-57
2022/10/09 00:36:42;;;;;;;;;;;;;;;;;;1047712;28;2035;-58
2022/10/09 00:37:13;;;;;;;;;;;;;;;;;;1055256;28;1702;-58
2022/10/09 00:37:43;;;;;;;;;;;;;;;;;;1053268;28;2315;-55
2022/10/09 00:38:13;;;;;;;;;;;;;;;;;;1049351;28;2285;-57
2022/10/09 00:38:44;;;;;;;;;;;;;;;;;;1047486;28;2499;-58
2022/10/09 00:39:14;;;;;;;;;;;;;;;;;;1048813;28;3029;-55
2022/10/09 00:39:44;;;;;;;;;;;;;;;;;;1049321;28;2688;-56
2022/10/09 00:40:15;;;;;;;;;;;;;;;;;;1053532;28;2105;-53
2022/10/09 00:40:45;;;;;;;;;;;;;;;;;;1053130;28;2455;-57
2022/10/09 00:41:20;;;;;;;;;;;;;;;;;;1052016;28;2215;-56
2022/10/09 00:41:51;;;;;;;;;;;;;;;;;;1051915;28;2330;-57
2022/10/09 00:42:21;;;;;;;;;;;;;;;;;;1053450;28;2763;-57
2022/10/09 00:42:55;;;;;;;;;;;;;;;;;;1051232;28;2537;-55
2022/10/09 00:43:40;;;;;;;;;;;;;;;;;;1048017;28;2546;-56
2022/10/09 00:44:29;;;;;;;;;;;;;;;;;;1047511;28;3946;-58
2022/10/09 00:45:00;;;;;;;;;;;;;;;;;;1048581;28;2312;-56
2022/10/09 00:45:31;;;;;;;;;;;;;;;;;;1051644;28;2567;-56
2022/10/09 00:46:01;;;;;;;;;;;;;;;;;;1048146;28;2454;-56
2022/10/09 00:46:57;;;;;;;;;;;;;;;;;;1047386;28;2557;-55
2022/10/09 00:47:41;;;;;;;;;;;;;;;;;;1044549;28;1793;-56
2022/10/09 00:48:12;;;;;;;;;;;;;;;;;;1053790;28;2498;-55
2022/10/09 00:48:43;;;;;;;;;;;;;;;;;;1051009;28;2037;-56
2022/10/09 00:49:32;;;;;;;;;;;;;;;;;;1048320;28;2505;-56
2022/10/09 00:50:08;;;;;;;;;;;;;;;;;;1048070;28;2324;-56
2022/10/09 00:50:48;;;;;;;;;;;;;;;;;;1053422;28;2527;-56
2022/10/09 00:51:18;;;;;;;;;;;;;;;;;;1052124;28;2848;-54
2022/10/09 00:51:50;;;;;;;;;;;;;;;;;;1053857;28;2768;-56
2022/10/09 00:52:22;;;;;;;;;;;;;;;;;;1053671;28;2561;-58
2022/10/09 00:52:55;;;;;;;;;;;;;;;;;;1052910;28;2417;-51
2022/10/09 00:53:27;;;;;;;;;;;;;;;;;;1053983;28;2569;-53
2022/10/09 00:53:59;;;;;;;;;;;;;;;;;;1051167;28;2635;-57
2022/10/09 00:54:31;;;;;;;;;;;;;;;;;;1049076;28;2344;-55
2022/10/09 00:55:01;;;;;;;;;;;;;;;;;;1044167;28;2736;-56
2022/10/09 00:55:33;;;;;;;;;;;;;;;;;;1040885;28;2473;-55
2022/10/09 00:56:03;;;;;;;;;;;;;;;;;;1039941;28;2523;-56
2022/10/09 00:56:34;;;;;;;;;;;;;;;;;;1042654;28;2562;-57
2022/10/09 00:57:04;;;;;;;;;;;;;;;;;;1045443;28;2484;-58
2022/10/09 00:57:36;;;;;;;;;;;;;;;;;;1052676;28;2681;-56
2022/10/09 00:58:08;;;;;;;;;;;;;;;;;;1051561;28;2681;-56
2022/10/09 00:58:39;;;;;;;;;;;;;;;;;;1052234;28;2409;-56
2022/10/09 00:59:09;;;;;;;;;;;;;;;;;;1049904;28;2951;-56
2022/10/09 00:59:40;;;;;;;;;;;;;;;;;;1053716;28;2477;-56
2022/10/09 01:00:11;;;;;;;;;;;;;;;;;;1052046;28;2473;-54
2022/10/09 01:00:42;;;;;;;;;;;;;;;;;;1052352;28;2464;-53
2022/10/09 01:01:12;;;;;;;;;;;;;;;;;;1051440;28;2523;-55
2022/10/09 01:01:44;;;;;;;;;;;;;;;;;;1052923;28;2473;-52
2022/10/09 01:02:15;;;;;;;;;;;;;;;;;;1042967;28;2409;-56
2022/10/09 01:02:45;;;;;;;;;;;;;;;;;;1042645;28;2903;-57
2022/10/09 01:03:16;;;;;;;;;;;;;;;;;;1038511;28;2433;-57
2022/10/09 01:03:46;;;;;;;;;;;;;;;;;;1039705;28;2452;-55
2022/10/09 01:04:17;;;;;;;;;;;;;;;;;;1047837;28;2602;-55
2022/10/09 01:04:47;;;;;;;;;;;;;;;;;;1052060;28;2872;-56
2022/10/09 01:05:18;;;;;;;;;;;;;;;;;;1052346;28;2336;-56
2022/10/09 01:06:01;;;;;;;;;;;;;;;;;;1052056;28;2684;-58
2022/10/09 01:06:52;;;;;;;;;;;;;;;;;;1049728;28;2035;-56
2022/10/09 01:07:47;;;;;;;;;;;;;;;;;;1051215;28;2972;-55
2022/10/09 01:08:18;;;;;;;;;;;;;;;;;;1047734;28;2504;-57
2022/10/09 01:09:05;;;;;;;;;;;;;;;;;;1049892;28;2494;-58
2022/10/09 01:09:53;;;;;;;;;;;;;;;;;;1048919;28;2580;-56
2022/10/09 01:10:26;;;;;;;;;;;;;;;;;;1053826;28;2818;-57
2022/10/09 01:11:13;;;;;;;;;;;;;;;;;;1052965;28;2646;-55
2022/10/09 01:11:48;;;;;;;;;;;;;;;;;;1051543;28;3032;-54
2022/10/09 01:12:35;;;;;;;;;;;;;;;;;;1050036;28;2360;-56
2022/10/09 01:13:45;;;;;;;;;;;;;;;;;;1045309;28;2658;-55
2022/10/09 01:14:21;;;;;;;;;;;;;;;;;;1035427;28;2673;-54
2022/10/09 01:15:03;;;;;;;;;;;;;;;;;;1037657;28;2291;-55
2022/10/09 01:15:43;;;;;;;;;;;;;;;;;;1032748;28;2532;-55
2022/10/09 01:16:16;;;;;;;;;;;;;;;;;;1031545;28;2454;-56
2022/10/09 01:16:50;;;;;;;;;;;;;;;;;;1035928;28;2443;-54
2022/10/09 01:17:46;;;;;;;;;;;;;;;;;;1037984;28;2773;-55
2022/10/09 01:18:23;;;;;;;;;;;;;;;;;;1037537;28;2732;-55
2022/10/09 01:19:01;;;;;;;;;;;;;;;;;;1040066;28;2454;-54
2022/10/09 01:19:43;;;;;;;;;;;;;;;;;;1037583;28;2084;-56
2022/10/09 01:20:28;;;;;;;;;;;;;;;;;;1043079;28;2400;-57
2022/10/09 01:21:06;;;;;;;;;;;;;;;;;;1047049;28;2561;-56
2022/10/09 01:21:40;;;;;;;;;;;;;;;;;;1052272;28;2541;-55
2022/10/09 01:22:28;;;;;;;;;;;;;;;;;;1052137;28;2462;-55
2022/10/09 01:23:10;;;;;;;;;;;;;;;;;;1054257;28;2471;-56
2022/10/09 01:23:41;;;;;;;;;;;;;;;;;;1051939;28;2520;-56
2022/10/09 01:24:11;;;;;;;;;;;;;;;;;;1053608;28;2568;-56
2022/10/09 01:24:46;;;;;;;;;;;;;;;;;;1048964;28;2824;-57
2022/10/09 01:25:22;;;;;;;;;;;;;;;;;;1049331;28;2415;-56
2022/10/09 01:25:55;;;;;;;;;;;;;;;;;;1048440;28;3030;-54
2022/10/09 01:26:44;;;;;;;;;;;;;;;;;;1054065;28;2381;-58
2022/10/09 01:27:18;;;;;;;;;;;;;;;;;;1053370;28;2598;-58
2022/10/09 01:27:49;;;;;;;;;;;;;;;;;;1054186;28;2470;-55
2022/10/09 01:28:28;;;;;;;;;;;;;;;;;;1054438;28;2542;-57
2022/10/09 01:29:05;;;;;;;;;;;;;;;;;;1049943;28;2606;-59
2022/10/09 01:29:41;;;;;;;;;;;;;;;;;;1047541;28;2941;-56
2022/10/09 01:30:24;;;;;;;;;;;;;;;;;;1049536;28;2498;-58
2022/10/09 01:31:15;;;;;;;;;;;;;;;;;;1044185;28;2501;-56
2022/10/09 01:31:47;;;;;;;;;;;;;;;;;;1045629;28;2229;-56
2022/10/09 01:32:20;;;;;;;;;;;;;;;;;;1046034;28;2756;-56
2022/10/09 01:32:52;;;;;;;;;;;;;;;;;;1046251;28;2062;-52
2022/10/09 01:33:23;;;;;;;;;;;;;;;;;;1042395;28;2873;-58
2022/10/09 01:33:56;;;;;;;;;;;;;;;;;;1041649;28;2398;-56
2022/10/09 01:34:27;;;;;;;;;;;;;;;;;;1040147;28;2731;-55
2022/10/09 01:34:58;;;;;;;;;;;;;;;;;;1046081;28;2282;-55
2022/10/09 01:35:30;;;;;;;;;;;;;;;;;;1047032;28;3118;-58
2022/10/09 01:36:02;;;;;;;;;;;;;;;;;;1047628;28;2370;-57
2022/10/09 01:36:34;;;;;;;;;;;;;;;;;;1042605;28;2469;-57
2022/10/09 01:37:06;;;;;;;;;;;;;;;;;;1039185;28;3071;-58
2022/10/09 01:37:39;;;;;;;;;;;;;;;;;;1032934;28;2902;-58
2022/10/09 01:38:16;;;;;;;;;;;;;;;;;;1030080;28;2257;-55
2022/10/09 01:38:47;;;;;;;;;;;;;;;;;;1034911;28;3507;-57
2022/10/09 01:39:19;;;;;;;;;;;;;;;;;;1034979;28;2117;-57
2022/10/09 01:39:51;;;;;;;;;;;;;;;;;;1042486;28;3179;-57
2022/10/09 01:40:22;;;;;;;;;;;;;;;;;;1044852;28;2480;-57
2022/10/09 01:40:52;;;;;;;;;;;;;;;;;;1044468;28;2243;-57
2022/10/09 01:41:23;;;;;;;;;;;;;;;;;;1045812;28;2124;-56
2022/10/09 01:41:53;;;;;;;;;;;;;;;;;;1046841;28;2022;-57
2022/10/09 01:42:25;;;;;;;;;;;;;;;;;;1046518;28;3025;-55
2022/10/09 01:42:57;;;;;;;;;;;;;;;;;;1049369;28;2070;-58
2022/10/09 01:43:27;;;;;;;;;;;;;;;;;;1045693;28;2134;-53
2022/10/09 01:43:58;;;;;;;;;;;;;;;;;;1046924;28;2435;-56
2022/10/09 01:44:31;;;;;;;;;;;;;;;;;;1048577;28;2030;-56
2022/10/09 01:45:01;;;;;;;;;;;;;;;;;;1047091;28;1979;-58
2022/10/09 01:45:39;;;;;;;;;;;;;;;;;;1045065;28;2629;-55
2022/10/09 01:46:17;;;;;;;;;;;;;;;;;;1045614;28;2395;-58
2022/10/09 01:46:47;;;;;;;;;;;;;;;;;;1043777;28;2360;-57
2022/10/09 01:47:20;;;;;;;;;;;;;;;;;;1046971;28;1897;-56
2022/10/09 01:47:50;;;;;;;;;;;;;;;;;;1047010;28;2081;-56
2022/10/09 01:48:24;;;;;;;;;;;;;;;;;;1044608;28;2374;-58
2022/10/09 01:49:01;;;;;;;;;;;;;;;;;;1044609;28;2719;-56
2022/10/09 01:49:38;;;;;;;;;;;;;;;;;;1045030;28;2507;-55
2022/10/09 01:50:17;;;;;;;;;;;;;;;;;;1048388;28;2608;-58
2022/10/09 01:50:51;;;;;;;;;;;;;;;;;;1045775;28;2409;-57
2022/10/09 01:51:24;;;;;;;;;;;;;;;;;;1044679;28;2484;-55
2022/10/09 01:51:58;;;;;;;;;;;;;;;;;;1046136;28;2466;-57
2022/10/09 01:52:29;;;;;;;;;;;;;;;;;;1045166;28;2436;-57
2022/10/09 01:53:03;;;;;;;;;;;;;;;;;;1040852;28;2541;-58
2022/10/09 01:53:37;;;;;;;;;;;;;;;;;;1036891;28;2432;-58
2022/10/09 01:54:09;;;;;;;;;;;;;;;;;;1038192;28;2622;-54
2022/10/09 01:54:50;;;;;;;;;;;;;;;;;;1039064;28;2869;-57
2022/10/09 01:55:33;;;;;;;;;;;;;;;;;;1047449;28;1928;-55
2022/10/09 01:56:07;;;;;;;;;;;;;;;;;;1042953;28;2557;-56
2022/10/09 01:56:41;;;;;;;;;;;;;;;;;;1046906;28;2888;-57
2022/10/09 01:57:12;;;;;;;;;;;;;;;;;;1047329;28;2375;-58
2022/10/09 01:57:43;;;;;;;;;;;;;;;;;;1044600;28;3090;-58
2022/10/09 01:58:16;;;;;;;;;;;;;;;;;;1043242;28;2087;-56
2022/10/09 01:58:49;;;;;;;;;;;;;;;;;;1045210;28;2946;-57
2022/10/09 01:59:21;;;;;;;;;;;;;;;;;;1046489;28;2214;-58
2022/10/09 01:59:51;;;;;;;;;;;;;;;;;;1047516;28;2079;-54
2022/10/09 02:00:22;;;;;;;;;;;;;;;;;;1045077;28;2383;-57
2022/10/09 02:01:04;;;;;;;;;;;;;;;;;;1044734;28;2541;-55
2022/10/09 02:01:35;;;;;;;;;;;;;;;;;;1045456;28;2433;-57
2022/10/09 02:02:06;;;;;;;;;;;;;;;;;;1045209;28;2364;-58
2022/10/09 02:02:37;;;;;;;;;;;;;;;;;;1045162;28;2064;-55
2022/10/09 02:03:10;;;;;;;;;;;;;;;;;;1043620;28;1943;-56
2022/10/09 02:03:41;;;;;;;;;;;;;;;;;;1047686;28;1815;-57
2022/10/09 02:04:13;;;;;;;;;;;;;;;;;;1045940;28;2481;-57
2022/10/09 02:04:45;;;;;;;;;;;;;;;;;;1038111;28;2549;-54
2022/10/09 02:05:21;;;;;;;;;;;;;;;;;;1038018;28;2438;-57
2022/10/09 02:05:51;;;;;;;;;;;;;;;;;;1036204;28;1993;-57
2022/10/09 02:06:23;;;;;;;;;;;;;;;;;;1037873;28;2382;-56
2022/10/09 02:06:53;;;;;;;;;;;;;;;;;;1041882;28;2306;-55
2022/10/09 02:07:24;;;;;;;;;;;;;;;;;;1043405;28;2680;-55
2022/10/09 02:07:55;;;;;;;;;;;;;;;;;;1045627;28;2387;-54
2022/10/09 02:08:27;;;;;;;;;;;;;;;;;;1043564;28;2641;-55
2022/10/09 02:08:57;;;;;;;;;;;;;;;;;;1045236;28;2554;-55
2022/10/09 02:09:29;;;;;;;;;;;;;;;;;;1045210;28;2569;-55
2022/10/09 02:10:00;;;;;;;;;;;;;;;;;;1044671;28;2533;-55
2022/10/09 02:10:33;;;;;;;;;;;;;;;;;;1044269;28;2517;-56
2022/10/09 02:11:03;;;;;;;;;;;;;;;;;;1044879;28;2659;-51
2022/10/09 02:11:34;;;;;;;;;;;;;;;;;;1042718;28;2534;-56
2022/10/09 02:12:06;;;;;;;;;;;;;;;;;;1044773;28;2621;-57
2022/10/09 02:12:39;;;;;;;;;;;;;;;;;;1040559;28;2251;-56
2022/10/09 02:13:09;;;;;;;;;;;;;;;;;;1041179;28;2137;-57
2022/10/09 02:13:40;;;;;;;;;;;;;;;;;;1039660;28;1850;-57
2022/10/09 02:14:11;;;;;;;;;;;;;;;;;;1041219;28;2354;-54
2022/10/09 02:14:41;;;;;;;;;;;;;;;;;;1044062;28;2803;-57
2022/10/09 02:15:12;;;;;;;;;;;;;;;;;;1044044;28;2638;-57
2022/10/09 02:15:42;;;;;;;;;;;;;;;;;;1043225;28;2662;-55
2022/10/09 02:16:31;;;;;;;;;;;;;;;;;;1046398;28;2849;-56
2022/10/09 02:17:07;;;;;;;;;;;;;;;;;;1043889;28;2730;-56
2022/10/09 02:17:41;;;;;;;;;;;;;;;;;;1043826;28;2279;-54
2022/10/09 02:18:13;;;;;;;;;;;;;;;;;;1044743;28;2918;-55
2022/10/09 02:18:45;;;;;;;;;;;;;;;;;;1046226;28;2125;-54
2022/10/09 02:19:22;;;;;;;;;;;;;;;;;;1044015;28;2512;-57
2022/10/09 02:19:55;;;;;;;;;;;;;;;;;;1044588;28;1691;-56
2022/10/09 02:20:31;;;;;;;;;;;;;;;;;;1043580;28;2295;-56
2022/10/09 02:21:05;;;;;;;;;;;;;;;;;;1044835;28;2065;-55
2022/10/09 02:21:35;;;;;;;;;;;;;;;;;;1044541;28;2480;-57
2022/10/09 02:22:10;;;;;;;;;;;;;;;;;;1042789;28;2506;-55
2022/10/09 02:22:41;;;;;;;;;;;;;;;;;;1044393;28;2263;-55
2022/10/09 02:23:12;;;;;;;;;;;;;;;;;;1044691;28;2769;-56
2022/10/09 02:23:43;;;;;;;;;;;;;;;;;;1045962;28;2535;-55
2022/10/09 02:24:17;;;;;;;;;;;;;;;;;;1039662;28;1607;-56
2022/10/09 02:24:48;;;;;;;;;;;;;;;;;;1040947;28;2476;-56
2022/10/09 02:25:19;;;;;;;;;;;;;;;;;;1034238;28;2533;-57
2022/10/09 02:25:53;;;;;;;;;;;;;;;;;;1032688;28;2532;-57
2022/10/09 02:26:24;;;;;;;;;;;;;;;;;;1034738;28;2447;-55
2022/10/09 02:26:57;;;;;;;;;;;;;;;;;;1036804;28;3211;-55
2022/10/09 02:27:28;;;;;;;;;;;;;;;;;;1045359;28;2478;-54
2022/10/09 02:28:00;;;;;;;;;;;;;;;;;;1046191;28;2661;-57
2022/10/09 02:28:38;;;;;;;;;;;;;;;;;;1044567;28;2043;-57
2022/10/09 02:29:09;;;;;;;;;;;;;;;;;;1044194;28;2420;-55
2022/10/09 02:29:41;;;;;;;;;;;;;;;;;;1046692;28;1786;-57
2022/10/09 02:30:12;;;;;;;;;;;;;;;;;;1043785;28;2613;-54
2022/10/09 02:31:01;;;;;;;;;;;;;;;;;;1049846;28;1933;-54
2022/10/09 02:31:39;;;;;;;;;;;;;;;;;;1051809;28;2507;-53
2022/10/09 02:32:10;;;;;;;;;;;;;;;;;;1054351;28;2671;-54
2022/10/09 02:32:41;;;;;;;;;;;;;;;;;;1053830;28;3677;-57
2022/10/09 02:33:12;;;;;;;;;;;;;;;;;;1052910;28;2743;-57
2022/10/09 02:34:00;;;;;;;;;;;;;;;;;;1045589;28;2638;-55
2022/10/09 02:34:31;;;;;;;;;;;;;;;;;;1039215;28;3028;-56
2022/10/09 02:35:02;;;;;;;;;;;;;;;;;;1041760;28;2457;-56
2022/10/09 02:35:34;;;;;;;;;;;;;;;;;;1042789;28;1900;-57
2022/10/09 02:36:04;;;;;;;;;;;;;;;;;;1041191;28;2553;-56
2022/10/09 02:36:35;;;;;;;;;;;;;;;;;;1039676;28;2319;-54
2022/10/09 02:37:06;;;;;;;;;;;;;;;;;;1041391;28;2611;-57
2022/10/09 02:37:37;;;;;;;;;;;;;;;;;;1044804;28;2658;-57
2022/10/09 02:38:08;;;;;;;;;;;;;;;;;;1050156;28;2220;-58
2022/10/09 02:38:38;;;;;;;;;;;;;;;;;;1053875;28;1737;-54
2022/10/09 02:39:09;;;;;;;;;;;;;;;;;;1052264;28;2367;-56
2022/10/09 02:39:41;;;;;;;;;;;;;;;;;;1050314;28;2496;-55
2022/10/09 02:40:12;;;;;;;;;;;;;;;;;;1045616;28;2342;-56
2022/10/09 02:40:43;;;;;;;;;;;;;;;;;;1041898;28;2505;-54
2022/10/09 02:41:13;;;;;;;;;;;;;;;;;;1040151;28;3044;-55
2022/10/09 02:41:43;;;;;;;;;;;;;;;;;;1046267;28;2459;-57
2022/10/09 02:42:14;;;;;;;;;;;;;;;;;;1046532;28;2359;-57
2022/10/09 02:42:46;;;;;;;;;;;;;;;;;;1042851;28;2463;-52
2022/10/09 02:43:16;;;;;;;;;;;;;;;;;;1041264;28;2111;-57
2022/10/09 02:43:47;;;;;;;;;;;;;;;;;;1042070;28;2629;-58
2022/10/09 02:44:17;;;;;;;;;;;;;;;;;;1040001;28;2478;-56
2022/10/09 02:44:48;;;;;;;;;;;;;;;;;;1051181;28;2331;-56
2022/10/09 02:45:19;;;;;;;;;;;;;;;;;;1051941;28;3318;-55
2022/10/09 02:45:50;;;;;;;;;;;;;;;;;;1054030;27;2550;-55
2022/10/09 02:46:21;;;;;;;;;;;;;;;;;;1050115;28;2617;-57
2022/10/09 02:46:52;;;;;;;;;;;;;;;;;;1049277;28;2356;-56
2022/10/09 02:47:22;;;;;;;;;;;;;;;;;;1048194;28;2713;-57
2022/10/09 02:47:52;;;;;;;;;;;;;;;;;;1049140;28;2443;-56
2022/10/09 02:48:23;;;;;;;;;;;;;;;;;;1051920;28;2107;-56
2022/10/09 02:48:54;;;;;;;;;;;;;;;;;;1048808;28;2146;-56
2022/10/09 02:49:24;;;;;;;;;;;;;;;;;;1049998;28;2423;-53
2022/10/09 02:49:55;;;;;;;;;;;;;;;;;;1050705;28;2558;-55
2022/10/09 02:50:25;;;;;;;;;;;;;;;;;;1049894;28;2145;-57
2022/10/09 02:50:56;;;;;;;;;;;;;;;;;;1052171;28;2477;-56
2022/10/09 02:51:26;;;;;;;;;;;;;;;;;;1052556;28;3016;-59
2022/10/09 02:51:57;;;;;;;;;;;;;;;;;;1055871;28;2019;-54
2022/10/09 02:52:27;;;;;;;;;;;;;;;;;;1049875;28;2452;-52
2022/10/09 02:52:57;;;;;;;;;;;;;;;;;;1049956;28;2561;-56
2022/10/09 02:53:28;;;;;;;;;;;;;;;;;;1050104;28;1891;-54
2022/10/09 02:54:00;;;;;;;;;;;;;;;;;;1048816;28;2100;-53
2022/10/09 02:54:31;;;;;;;;;;;;;;;;;;1053863;28;3110;-56
2022/10/09 02:55:01;;;;;;;;;;;;;;;;;;1048566;28;1768;-56
2022/10/09 02:55:32;;;;;;;;;;;;;;;;;;1044105;28;2459;-56
2022/10/09 02:56:02;;;;;;;;;;;;;;;;;;1045282;28;2532;-56
2022/10/09 02:56:32;;;;;;;;;;;;;;;;;;1047121;28;2039;-54
2022/10/09 02:57:02;;;;;;;;;;;;;;;;;;1047930;28;2630;-55
2022/10/09 02:57:33;;;;;;;;;;;;;;;;;;1053645;28;2532;-56
2022/10/09 02:58:03;;;;;;;;;;;;;;;;;;1053540;28;1615;-58
2022/10/09 02:58:34;;;;;;;;;;;;;;;;;;1053339;28;1675;-53
2022/10/09 02:59:05;;;;;;;;;;;;;;;;;;1054324;28;2377;-58
2022/10/09 02:59:36;;;;;;;;;;;;;;;;;;1043754;28;2397;-56
2022/10/09 03:00:06;;;;;;;;;;;;;;;;;;1046543;28;2889;-55
2022/10/09 03:00:37;;;;;;;;;;;;;;;;;;1046002;28;3052;-57
2022/10/09 03:01:07;;;;;;;;;;;;;;;;;;1044085;28;2464;-57
2022/10/09 03:01:38;;;;;;;;;;;;;;;;;;1053672;28;2997;-57
2022/10/09 03:02:08;;;;;;;;;;;;;;;;;;1053106;28;2750;-53
2022/10/09 03:02:38;;;;;;;;;;;;;;;;;;1054863;28;2441;-57
2022/10/09 03:03:09;;;;;;;;;;;;;;;;;;1052335;28;3106;-59
2022/10/09 03:03:40;;;;;;;;;;;;;;;;;;1047892;28;2352;-56
2022/10/09 03:04:11;;;;;;;;;;;;;;;;;;1044819;28;2493;-53
2022/10/09 03:04:41;;;;;;;;;;;;;;;;;;1046055;28;2365;-56
2022/10/09 03:05:11;;;;;;;;;;;;;;;;;;1043843;28;2536;-56
2022/10/09 03:05:44;;;;;;;;;;;;;;;;;;1046868;28;2405;-57
2022/10/09 03:06:16;;;;;;;;;;;;;;;;;;1055010;28;1482;-58
2022/10/09 03:06:47;;;;;;;;;;;;;;;;;;1052353;28;2508;-58
2022/10/09 03:07:17;;;;;;;;;;;;;;;;;;1052243;28;2017;-56
2022/10/09 03:07:50;;;;;;;;;;;;;;;;;;1053089;28;1794;-58
2022/10/09 03:08:20;;;;;;;;;;;;;;;;;;1053665;28;2122;-55
2022/10/09 03:08:51;;;;;;;;;;;;;;;;;;1048644;28;2300;-59
2022/10/09 03:09:22;;;;;;;;;;;;;;;;;;1046732;28;2784;-58
2022/10/09 03:09:53;;;;;;;;;;;;;;;;;;1050195;28;3027;-55
2022/10/09 03:10:23;;;;;;;;;;;;;;;;;;1051271;28;1723;-55
2022/10/09 03:10:53;;;;;;;;;;;;;;;;;;1049319;28;2062;-59
2022/10/09 03:11:24;;;;;;;;;;;;;;;;;;1049248;28;2458;-57
2022/10/09 03:11:54;;;;;;;;;;;;;;;;;;1053475;28;2414;-55
2022/10/09 03:12:25;;;;;;;;;;;;;;;;;;1046588;28;2101;-57
2022/10/09 03:12:55;;;;;;;;;;;;;;;;;;1045976;28;2883;-57
2022/10/09 03:13:26;;;;;;;;;;;;;;;;;;1043290;28;1911;-54
2022/10/09 03:13:57;;;;;;;;;;;;;;;;;;1043321;28;2354;-58
2022/10/09 03:14:27;;;;;;;;;;;;;;;;;;1050086;28;2660;-55
2022/10/09 03:14:57;;;;;;;;;;;;;;;;;;1053713;28;2831;-52
2022/10/09 03:15:27;;;;;;;;;;;;;;;;;;1052522;28;2371;-54
2022/10/09 03:16:02;;;;;;;;;;;;;;;;;;1051375;28;1589;-58
2022/10/09 03:16:32;;;;;;;;;;;;;;;;;;1052453;28;2483;-58
2022/10/09 03:17:03;;;;;;;;;;;;;;;;;;1054337;28;2319;-57
2022/10/09 03:17:34;;;;;;;;;;;;;;;;;;1044706;28;2046;-57
2022/10/09 03:18:05;;;;;;;;;;;;;;;;;;1044522;28;2456;-54
2022/10/09 03:18:36;;;;;;;;;;;;;;;;;;1044684;28;2608;-56
2022/10/09 03:19:06;;;;;;;;;;;;;;;;;;1043327;28;2373;-57
2022/10/09 03:19:36;;;;;;;;;;;;;;;;;;1052735;28;2035;-58
2022/10/09 03:20:07;;;;;;;;;;;;;;;;;;1055388;28;2062;-57
2022/10/09 03:20:38;;;;;;;;;;;;;;;;;;1055472;28;2180;-55
2022/10/09 03:21:10;;;;;;;;;;;;;;;;;;1050331;28;2549;-54
2022/10/09 03:21:40;;;;;;;;;;;;;;;;;;1050533;28;2308;-55
2022/10/09 03:22:10;;;;;;;;;;;;;;;;;;1048769;28;2427;-55
2022/10/09 03:22:40;;;;;;;;;;;;;;;;;;1051544;28;2788;-57
2022/10/09 03:23:11;;;;;;;;;;;;;;;;;;1053383;28;1988;-57
2022/10/09 03:23:42;;;;;;;;;;;;;;;;;;1047104;28;2427;-57
2022/10/09 03:24:13;;;;;;;;;;;;;;;;;;1043836;28;2539;-56
2022/10/09 03:24:44;;;;;;;;;;;;;;;;;;1033840;28;2426;-56
2022/10/09 03:25:14;;;;;;;;;;;;;;;;;;1034765;28;2145;-58
2022/10/09 03:25:53;;;;;;;;;;;;;;;;;;1037248;28;3029;-56
2022/10/09 03:26:25;;;;;;;;;;;;;;;;;;1045512;28;2067;-55
2022/10/09 03:27:01;;;;;;;;;;;;;;;;;;1051725;28;2480;-53
2022/10/09 03:27:32;;;;;;;;;;;;;;;;;;1053773;28;2491;-57
2022/10/09 03:28:11;;;;;;;;;;;;;;;;;;1049270;28;3069;-57
2022/10/09 03:28:43;;;;;;;;;;;;;;;;;;1044306;28;2031;-56
2022/10/09 03:29:14;;;;;;;;;;;;;;;;;;1041143;28;2494;-53
2022/10/09 03:29:44;;;;;;;;;;;;;;;;;;1043384;28;2589;-56
2022/10/09 03:30:14;;;;;;;;;;;;;;;;;;1045740;28;2465;-58
2022/10/09 03:30:59;;;;;;;;;;;;;;;;;;1046819;28;2788;-57
2022/10/09 03:31:35;;;;;;;;;;;;;;;;;;1054644;28;2401;-56
2022/10/09 03:32:06;;;;;;;;;;;;;;;;;;1052430;28;2152;-56
2022/10/09 03:32:36;;;;;;;;;;;;;;;;;;1052149;28;2942;-56
2022/10/09 03:33:07;;;;;;;;;;;;;;;;;;1055335;28;1823;-53
2022/10/09 03:33:40;;;;;;;;;;;;;;;;;;1051647;28;2420;-56
2022/10/09 03:34:11;;;;;;;;;;;;;;;;;;1053608;28;2730;-57
2022/10/09 03:34:41;;;;;;;;;;;;;;;;;;1053204;28;2528;-53
2022/10/09 03:35:11;;;;;;;;;;;;;;;;;;1050748;28;2150;-56
2022/10/09 03:35:42;;;;;;;;;;;;;;;;;;1048237;28;3053;-53
2022/10/09 03:36:12;;;;;;;;;;;;;;;;;;1048799;28;2050;-59
2022/10/09 03:36:42;;;;;;;;;;;;;;;;;;1048265;28;2512;-50
2022/10/09 03:37:13;;;;;;;;;;;;;;;;;;1048849;28;2546;-55
2022/10/09 03:37:43;;;;;;;;;;;;;;;;;;1045775;28;2441;-59
2022/10/09 03:38:14;;;;;;;;;;;;;;;;;;1046903;28;2474;-56
2022/10/09 03:38:44;;;;;;;;;;;;;;;;;;1048108;28;2426;-57
2022/10/09 03:39:15;;;;;;;;;;;;;;;;;;1048517;28;2503;-55
2022/10/09 03:39:45;;;;;;;;;;;;;;;;;;1052545;28;2342;-54
2022/10/09 03:40:15;;;;;;;;;;;;;;;;;;1051764;28;2385;-54
2022/10/09 03:40:45;;;;;;;;;;;;;;;;;;1053023;28;2431;-56
2022/10/09 03:41:16;;;;;;;;;;;;;;;;;;1047370;28;3204;-53
2022/10/09 03:41:46;;;;;;;;;;;;;;;;;;1049558;28;2528;-56
2022/10/09 03:42:17;;;;;;;;;;;;;;;;;;1049538;28;2407;-55
2022/10/09 03:42:50;;;;;;;;;;;;;;;;;;1048025;28;2550;-58
2022/10/09 03:43:21;;;;;;;;;;;;;;;;;;1051853;28;2571;-56
2022/10/09 03:43:51;;;;;;;;;;;;;;;;;;1052319;28;2512;-56
2022/10/09 03:44:22;;;;;;;;;;;;;;;;;;1052154;28;2644;-56
2022/10/09 03:44:53;;;;;;;;;;;;;;;;;;1045392;28;2765;-57
2022/10/09 03:45:23;;;;;;;;;;;;;;;;;;1045249;28;2261;-56
2022/10/09 03:45:54;;;;;;;;;;;;;;;;;;1042915;28;2417;-55
2022/10/09 03:46:25;;;;;;;;;;;;;;;;;;1044807;28;2381;-56
2022/10/09 03:46:56;;;;;;;;;;;;;;;;;;1049701;28;2478;-55
2022/10/09 03:47:27;;;;;;;;;;;;;;;;;;1044479;28;2765;-57
2022/10/09 03:47:58;;;;;;;;;;;;;;;;;;1037471;28;1875;-56